Time;durP1;ratioP1;P1;durP2;ratioP2;P2;SDS_P1;SDS_P2;PMS_P1;PMS_P2;Temp;Humidity;BMP_temperature;BMP_pressure;BME280_temperature;BME280_humidity;BME280_pressure;Samples;Min_cycle;Max_cycle;Signal;HPM_P1;HPM_P2
2022/12/03 00:03:03;;;;;;;16.52;6.63;;;7.10;98.00;;;;;;9721323;25;20460;-65
2022/12/03 00:09:00;;;;;;;16.02;6.60;;;7.10;98.10;;;;;;9693042;30;20061;-65
2022/12/03 00:14:01;;;;;;;18.80;6.93;;;7.10;97.70;;;;;;9720178;25;20060;-65
2022/12/03 00:19:24;;;;;;;17.30;6.60;;;8.30;98.70;;;;;;9690238;30;20125;-65
2022/12/03 00:24:25;;;;;;;15.00;6.90;;;7.00;97.90;;;;;;9697502;30;20050;-65
2022/12/03 00:29:53;;;;;;;16.13;6.82;;;7.10;98.20;;;;;;9697403;30;20527;-65
2022/12/03 00:35:03;;;;;;;14.93;6.40;;;7.20;98.00;;;;;;9679252;30;20072;-65
2022/12/03 00:40:05;;;;;;;13.35;5.55;;;7.10;98.10;;;;;;9705089;30;20041;-65
2022/12/03 00:45:07;;;;;;;16.08;7.28;;;7.10;98.10;;;;;;9681024;30;20163;-65
2022/12/03 00:50:08;;;;;;;19.33;7.10;;;7.10;98.10;;;;;;9689736;30;20049;-65
2022/12/03 00:55:09;;;;;;;15.35;6.60;;;7.10;98.10;;;;;;9700542;30;20045;-65
2022/12/03 01:00:12;;;;;;;14.63;6.60;;;7.10;98.10;;;;;;9691184;30;20081;-65
2022/12/03 01:05:13;;;;;;;15.32;5.95;;;7.10;98.10;;;;;;9700293;30;20136;-65
2022/12/03 01:10:32;;;;;;;19.80;7.63;;;7.10;98.20;;;;;;9702887;30;20065;-64
2022/12/03 01:15:33;;;;;;;17.58;6.50;;;6.80;98.00;;;;;;9690290;30;20051;-64
2022/12/03 01:20:35;;;;;;;15.77;6.20;;;7.10;98.20;;;;;;9698173;30;20033;-65
2022/12/03 01:25:36;;;;;;;17.17;7.22;;;7.00;98.10;;;;;;9699858;30;20421;-65
2022/12/03 01:32:15;;;;;;;19.40;7.47;;;7.10;98.10;;;;;;9694851;30;20066;-64
2022/12/03 01:35:58;;;;;;;18.75;6.97;;;7.10;98.10;;;;;;9699093;30;20029;-65
2022/12/03 01:40:59;;;;;;;16.25;6.95;;;7.10;98.10;;;;;;9687345;30;20040;-65
2022/12/03 01:46:00;;;;;;;15.55;6.72;;;7.10;98.10;;;;;;9694993;30;20033;-65
2022/12/03 01:51:05;;;;;;;17.45;6.65;;;7.10;98.10;;;;;;9691288;30;20432;-65
2022/12/03 01:56:08;;;;;;;16.20;6.43;;;7.10;98.10;;;;;;9689857;30;20436;-65
2022/12/03 02:01:14;;;;;;;21.70;7.30;;;7.10;98.10;;;;;;9694922;30;20041;-65
2022/12/03 02:06:18;;;;;;;13.65;6.50;;;7.10;98.10;;;;;;9697943;30;20110;-65
2022/12/03 02:11:38;;;;;;;16.25;6.60;;;7.10;98.10;;;;;;9697741;30;20065;-66
2022/12/03 02:16:43;;;;;;;16.23;6.82;;;7.10;98.00;;;;;;10225551;25;20143;-65
2022/12/03 02:22:44;;;;;;;17.60;7.90;;;7.10;98.10;;;;;;10026858;24;20698;-65
2022/12/03 02:28:52;;;;;;;15.85;7.38;;;7.10;98.00;;;;;;9780798;24;20054;-65
2022/12/03 02:35:10;;;;;;;13.90;6.13;;;7.10;98.00;;;;;;9801726;25;20037;-65
2022/12/03 02:40:26;;;;;;;16.55;6.82;;;7.10;98.00;;;;;;9698764;24;20408;-65
2022/12/03 02:55:49;;;;;;;17.10;7.00;;;7.10;98.10;;;;;;9725299;25;20211;-65
2022/12/03 03:00:54;;;;;;;17.95;6.93;;;7.10;98.20;;;;;;9698419;30;20124;-65
2022/12/03 03:06:33;;;;;;;18.10;6.97;;;7.10;98.20;;;;;;9706790;30;20119;-65
2022/12/03 03:16:35;;;;;;;15.85;6.95;;;7.10;98.20;;;;;;9830700;24;20065;-65
2022/12/03 03:21:53;;;;;;;19.17;7.40;;;8.10;98.80;;;;;;9719166;30;20029;-65
2022/12/03 03:26:53;;;;;;;16.08;6.75;;;7.10;98.10;;;;;;9718417;30;20391;-65
2022/12/03 03:31:55;;;;;;;16.52;7.70;;;7.10;98.20;;;;;;9719199;30;20044;-65
2022/12/03 03:36:56;;;;;;;17.60;7.28;;;7.10;98.30;;;;;;9718207;30;20092;-65
2022/12/03 03:41:56;;;;;;;18.25;7.13;;;8.40;98.50;;;;;;9703065;30;20096;-65
2022/12/03 03:47:01;;;;;;;14.60;6.47;;;7.10;98.20;;;;;;9719322;30;20318;-65
2022/12/03 03:52:02;;;;;;;16.27;6.60;;;7.10;98.20;;;;;;9717819;30;20077;-65
2022/12/03 03:57:04;;;;;;;17.70;7.15;;;7.10;98.20;;;;;;9718172;30;20026;-65
2022/12/03 04:02:05;;;;;;;16.27;7.40;;;7.10;98.20;;;;;;9717975;30;20088;-65
2022/12/03 04:07:06;;;;;;;20.23;7.80;;;7.10;98.20;;;;;;9711157;30;20544;-65
2022/12/03 04:17:28;;;;;;;20.48;7.60;;;7.10;98.20;;;;;;9717308;30;20054;-65
2022/12/03 04:22:41;;;;;;;16.98;7.95;;;7.10;98.20;;;;;;9717396;30;20037;-65
2022/12/03 04:38:21;;;;;;;15.70;7.85;;;7.10;98.10;;;;;;9716864;30;20098;-65
2022/12/03 04:43:23;;;;;;;17.30;7.03;;;7.20;98.40;;;;;;9716639;30;20026;-65
2022/12/03 04:48:24;;;;;;;17.20;7.05;;;7.10;98.10;;;;;;9717909;30;20684;-65
2022/12/03 04:53:25;;;;;;;16.33;6.88;;;7.10;98.20;;;;;;9716387;30;20041;-65
2022/12/03 04:58:26;;;;;;;18.00;7.40;;;7.10;98.10;;;;;;9715829;30;20508;-65
2022/12/03 05:04:10;;;;;;;19.80;7.80;;;7.60;98.30;;;;;;9714911;30;20080;-65
2022/12/03 05:33:33;;;;;;;17.08;7.15;;;7.00;98.00;;;;;;10577316;24;20493;-64
2022/12/03 05:44:32;;;;;;;16.67;7.95;;;7.00;98.10;;;;;;9780597;24;20065;-65
2022/12/03 05:50:43;;;;;;;;;;;;;;;;;;;;;
2022/12/03 05:56:42;;;;;;;17.58;7.50;;;7.00;98.00;;;;;;9641887;30;20264;-65
2022/12/03 06:01:45;;;;;;;19.02;7.43;;;7.00;98.00;;;;;;9685011;25;20111;-65
2022/12/03 06:06:46;;;;;;;17.02;7.70;;;7.00;98.10;;;;;;9712938;30;20194;-65
2022/12/03 06:11:52;;;;;;;16.45;7.32;;;7.00;98.10;;;;;;10029106;24;20592;-65
2022/12/03 06:16:53;;;;;;;17.90;7.68;;;7.00;98.10;;;;;;9698543;30;20053;-65
2022/12/03 06:21:54;;;;;;;16.27;7.38;;;7.00;98.10;;;;;;9700925;30;20036;-65
2022/12/03 06:26:55;;;;;;;15.48;7.40;;;7.00;98.10;;;;;;9695167;30;20435;-65
2022/12/03 06:31:56;;;;;;;16.70;8.13;;;7.00;98.10;;;;;;9693791;30;20052;-65
2022/12/03 06:36:58;;;;;;;16.52;7.50;;;7.80;98.30;;;;;;9699824;30;20078;-64
2022/12/03 06:41:59;;;;;;;16.00;7.38;;;7.00;98.10;;;;;;9695178;30;20044;-64
2022/12/03 06:46:59;;;;;;;17.02;7.93;;;7.00;98.10;;;;;;9690477;30;20068;-64
2022/12/03 06:52:00;;;;;;;20.83;8.65;;;7.00;98.00;;;;;;9696550;30;20137;-65
2022/12/03 06:57:02;;;;;;;17.30;8.27;;;7.00;98.10;;;;;;9697791;30;20030;-65
2022/12/03 07:02:04;;;;;;;17.05;7.72;;;7.00;98.00;;;;;;9683772;30;20479;-64
2022/12/03 07:07:05;;;;;;;18.63;8.20;;;7.40;98.10;;;;;;9685152;30;20065;-65
2022/12/03 07:12:06;;;;;;;19.23;7.97;;;7.00;98.10;;;;;;9656638;30;20059;-65
2022/12/03 07:17:07;;;;;;;18.88;7.63;;;7.80;98.30;;;;;;9612952;30;20702;-65
2022/12/03 07:22:08;;;;;;;16.65;8.18;;;6.90;97.90;;;;;;9622029;30;20102;-65
2022/12/03 07:27:09;;;;;;;19.77;8.30;;;6.90;98.00;;;;;;9616563;30;20568;-64
2022/12/03 07:32:10;;;;;;;17.83;7.70;;;6.90;98.00;;;;;;9617116;30;20039;-64
2022/12/03 07:37:11;;;;;;;17.88;7.88;;;7.10;98.10;;;;;;9620603;30;20030;-64
2022/12/03 07:42:12;;;;;;;18.05;8.05;;;6.90;98.00;;;;;;9619014;30;20402;-66
2022/12/03 07:47:13;;;;;;;20.45;8.32;;;6.90;97.90;;;;;;9613611;30;20047;-65
2022/12/03 07:52:14;;;;;;;19.83;8.07;;;6.90;98.00;;;;;;9630799;30;20405;-64
2022/12/03 07:57:15;;;;;;;18.00;8.10;;;6.90;98.00;;;;;;9628786;30;20577;-65
2022/12/03 08:02:16;;;;;;;22.50;9.05;;;6.90;97.90;;;;;;9629673;30;20049;-64
2022/12/03 08:07:16;;;;;;;20.75;9.68;;;6.90;97.90;;;;;;9624463;30;20150;-65
2022/12/03 08:12:38;;;;;;;23.80;9.32;;;6.90;97.90;;;;;;9641378;30;20133;-64
2022/12/03 08:17:41;;;;;;;21.23;9.50;;;6.90;97.90;;;;;;9662894;30;20038;-65
2022/12/03 08:22:43;;;;;;;20.05;9.32;;;6.90;97.90;;;;;;9658439;30;20035;-64
2022/12/03 08:27:44;;;;;;;19.60;9.07;;;6.90;97.90;;;;;;9651510;30;20037;-64
2022/12/03 08:32:45;;;;;;;22.25;8.70;;;6.90;97.90;;;;;;9588117;30;20165;-65
2022/12/03 08:37:58;;;;;;;20.20;8.75;;;6.90;97.90;;;;;;9552405;30;20894;-64
2022/12/03 08:42:59;;;;;;;21.27;8.93;;;7.00;97.80;;;;;;9570958;30;20444;-64
2022/12/03 08:48:04;;;;;;;21.88;8.98;;;6.90;97.90;;;;;;9577946;30;20060;-64
2022/12/03 08:53:14;;;;;;;21.77;9.52;;;6.90;97.80;;;;;;9579022;30;20618;-64
2022/12/03 08:58:37;;;;;;;19.35;8.48;;;6.90;97.80;;;;;;9569642;30;20044;-64
2022/12/03 09:03:48;;;;;;;21.42;9.25;;;6.90;97.80;;;;;;9582765;30;20332;-64
2022/12/03 09:08:49;;;;;;;24.13;9.68;;;6.90;97.80;;;;;;9561244;30;20566;-64
2022/12/03 09:13:50;;;;;;;21.20;9.57;;;6.90;97.90;;;;;;9569423;30;20137;-64
2022/12/03 09:18:52;;;;;;;21.88;9.27;;;6.90;97.90;;;;;;9562471;30;20037;-65
2022/12/03 09:23:53;;;;;;;19.45;8.40;;;6.90;97.80;;;;;;9571624;30;20048;-64
2022/12/03 09:28:53;;;;;;;24.58;9.20;;;6.90;97.80;;;;;;9553608;30;20676;-65
2022/12/03 09:33:54;;;;;;;20.20;9.15;;;6.90;97.90;;;;;;9558461;30;20150;-65
2022/12/03 09:38:56;;;;;;;21.50;9.52;;;6.90;97.90;;;;;;9559898;30;20785;-64
2022/12/03 09:43:56;;;;;;;20.27;8.48;;;6.90;97.90;;;;;;9579555;30;20385;-63
2022/12/03 09:48:57;;;;;;;23.73;9.32;;;6.90;97.90;;;;;;9577130;30;20050;-65
2022/12/03 09:53:59;;;;;;;22.77;9.68;;;6.90;97.80;;;;;;9566926;30;20042;-63
2022/12/03 09:59:01;;;;;;;23.38;8.90;;;6.90;97.80;;;;;;9576046;30;20121;-64
2022/12/03 10:04:01;;;;;;;23.35;9.18;;;7.00;97.80;;;;;;9575102;30;20620;-64
2022/12/03 10:09:03;;;;;;;27.95;9.23;;;7.00;97.70;;;;;;9577936;30;20314;-64
2022/12/03 10:14:04;;;;;;;20.88;9.55;;;6.90;97.70;;;;;;9578699;30;20164;-64
2022/12/03 10:19:05;;;;;;;27.60;10.07;;;7.00;97.80;;;;;;9573941;30;20073;-64
2022/12/03 10:24:31;;;;;;;24.48;9.18;;;7.10;97.80;;;;;;9574567;30;20153;-63
2022/12/03 10:29:34;;;;;;;26.65;9.65;;;6.90;97.70;;;;;;9565570;30;20811;-64
2022/12/03 10:34:40;;;;;;;23.52;9.88;;;7.20;97.80;;;;;;9575299;30;20780;-63
2022/12/03 10:40:00;;;;;;;26.30;9.95;;;7.30;97.70;;;;;;9576831;30;20038;-63
2022/12/03 10:45:18;;;;;;;21.85;9.32;;;7.00;97.60;;;;;;9570931;30;20031;-63
2022/12/03 10:50:19;;;;;;;21.27;9.55;;;7.00;97.60;;;;;;9565733;30;20042;-63
2022/12/03 10:55:51;;;;;;;26.65;10.77;;;7.00;97.60;;;;;;9574172;30;20395;-64
2022/12/03 11:01:24;;;;;;;26.33;9.25;;;7.90;97.60;;;;;;9529640;25;20236;-64
2022/12/03 11:07:15;;;;;;;26.23;10.20;;;7.00;97.50;;;;;;9599440;30;20798;-63
2022/12/03 11:14:25;;;;;;;27.63;10.43;;;7.30;97.30;;;;;;9866462;25;20387;-63
2022/12/03 11:19:50;;;;;;;23.00;9.40;;;7.10;97.50;;;;;;9631822;30;20329;-63
2022/12/03 11:53:12;;;;;;;21.83;8.50;;;7.10;97.30;;;;;;10110507;25;19932;-64
2022/12/03 12:05:23;;;;;;;;;;;;;;;;;;;;;
2022/12/03 12:10:52;;;;;;;23.00;8.95;;;7.10;97.60;;;;;;9541406;25;20584;-63
2022/12/03 12:16:34;;;;;;;23.88;10.48;;;7.90;97.70;;;;;;9574056;30;20038;-71
2022/12/03 12:28:15;;;;;;;25.73;11.00;;;7.00;97.40;;;;;;9558203;30;20531;-64
2022/12/03 12:33:34;;;;;;;33.42;12.55;;;7.10;97.50;;;;;;9576124;30;20050;-72
2022/12/03 12:38:35;;;;;;;33.33;12.43;;;6.60;97.20;;;;;;9592679;30;20137;-63
2022/12/03 12:43:52;;;;;;;32.75;11.52;;;6.60;97.50;;;;;;9606860;30;20605;-63
2022/12/03 12:48:59;;;;;;;39.45;11.95;;;5.90;97.30;;;;;;9587823;30;20156;-63
2022/12/03 12:54:01;;;;;;;34.85;13.23;;;6.80;97.40;;;;;;9601451;30;20042;-63
2022/12/03 12:59:16;;;;;;;33.22;12.35;;;6.90;97.40;;;;;;9606238;30;20041;-60
2022/12/03 13:04:22;;;;;;;32.40;12.15;;;6.30;97.10;;;;;;9604327;30;20033;-63
2022/12/03 13:09:24;;;;;;;33.92;12.75;;;6.80;97.30;;;;;;9605955;30;20057;-63
2022/12/03 13:14:35;;;;;;;28.17;11.98;;;6.90;97.40;;;;;;9600941;30;20034;-63
2022/12/03 13:19:39;;;;;;;29.13;11.35;;;7.10;97.40;;;;;;9602911;30;20077;-63
2022/12/03 13:24:44;;;;;;;29.67;11.43;;;6.90;97.40;;;;;;9603458;30;20440;-61
2022/12/03 13:29:45;;;;;;;39.78;11.93;;;6.90;97.20;;;;;;9603166;30;20128;-67
2022/12/03 13:34:49;;;;;;;30.50;10.68;;;7.00;97.30;;;;;;9601451;30;20309;-62
2022/12/03 13:39:52;;;;;;;31.98;11.63;;;6.90;97.40;;;;;;9597606;30;20117;-63
2022/12/03 13:44:55;;;;;;;30.92;12.13;;;6.90;97.40;;;;;;9585508;30;20037;-62
2022/12/03 13:50:02;;;;;;;33.55;12.27;;;6.90;97.40;;;;;;9585315;30;20050;-62
2022/12/03 13:55:05;;;;;;;27.25;11.82;;;6.90;97.40;;;;;;9592156;30;20483;-62
2022/12/03 14:00:07;;;;;;;28.02;11.35;;;6.90;97.40;;;;;;9597361;30;20301;-65
2022/12/03 14:05:09;;;;;;;28.27;11.48;;;6.90;97.50;;;;;;9598733;30;20034;-63
2022/12/03 14:10:11;;;;;;;28.20;11.43;;;6.90;97.50;;;;;;9592418;30;20058;-62
2022/12/03 14:15:12;;;;;;;30.73;11.32;;;6.90;97.50;;;;;;9597613;30;20378;-63
2022/12/03 14:20:16;;;;;;;25.75;11.05;;;6.90;97.50;;;;;;9592468;30;20517;-66
2022/12/03 14:25:17;;;;;;;30.88;10.88;;;6.70;97.40;;;;;;9589715;30;20598;-63
2022/12/03 14:30:17;;;;;;;26.42;10.82;;;7.10;97.50;;;;;;9595103;30;20395;-62
2022/12/03 14:35:18;;;;;;;27.40;11.35;;;6.90;97.40;;;;;;9592959;30;20140;-62
2022/12/03 14:40:19;;;;;;;28.65;11.30;;;6.90;97.70;;;;;;9590654;30;20473;-62
2022/12/03 14:45:21;;;;;;;28.58;11.20;;;6.80;97.40;;;;;;9605388;30;20112;-62
2022/12/03 14:50:22;;;;;;;28.73;11.95;;;6.80;97.30;;;;;;9602110;30;20454;-62
2022/12/03 14:55:23;;;;;;;28.63;11.32;;;6.70;97.40;;;;;;9602416;30;20333;-66
2022/12/03 15:00:24;;;;;;;30.23;11.02;;;6.70;97.40;;;;;;9607418;30;20415;-63
2022/12/03 15:05:24;;;;;;;33.65;12.15;;;6.70;97.40;;;;;;9607743;30;20518;-60
2022/12/03 15:10:35;;;;;;;32.58;11.02;;;5.90;97.00;;;;;;9608229;30;20172;-62
2022/12/03 15:15:39;;;;;;;30.02;10.75;;;6.60;97.40;;;;;;9591507;30;20456;-63
2022/12/03 15:20:40;;;;;;;26.05;10.32;;;6.80;97.70;;;;;;9611688;30;20073;-66
2022/12/03 15:25:41;;;;;;;32.30;11.23;;;7.50;97.70;;;;;;9608507;30;20092;-64
2022/12/03 15:30:42;;;;;;;27.48;10.23;;;7.10;97.50;;;;;;9605814;30;20546;-63
2022/12/03 15:35:43;;;;;;;28.45;10.52;;;7.10;97.50;;;;;;9600356;30;20454;-64
2022/12/03 15:40:44;;;;;;;30.55;10.00;;;7.10;97.50;;;;;;9597655;30;20038;-64
2022/12/03 15:45:45;;;;;;;26.17;10.43;;;7.10;97.50;;;;;;9592086;30;20041;-63
2022/12/03 15:50:45;;;;;;;28.02;12.07;;;7.00;97.60;;;;;;9595270;30;20827;-61
2022/12/03 15:55:46;;;;;;;27.75;10.02;;;7.20;97.60;;;;;;9592108;30;20034;-62
2022/12/03 16:00:47;;;;;;;23.90;10.52;;;6.90;97.60;;;;;;9678585;30;20042;-62
2022/12/03 16:05:48;;;;;;;30.67;11.50;;;6.90;97.80;;;;;;9670942;30;20042;-61
2022/12/03 16:10:48;;;;;;;28.88;11.55;;;7.00;97.60;;;;;;9677088;30;20058;-61
2022/12/03 16:15:49;;;;;;;29.65;11.88;;;7.00;97.70;;;;;;9681671;30;20038;-61
2022/12/03 16:20:50;;;;;;;27.50;10.75;;;6.90;97.80;;;;;;9676141;30;20061;-62
2022/12/03 16:25:51;;;;;;;32.15;11.55;;;6.90;97.70;;;;;;9682943;30;20493;-65
2022/12/03 16:30:52;;;;;;;30.27;10.63;;;7.10;97.70;;;;;;9677613;30;20473;-63
2022/12/03 16:35:52;;;;;;;33.22;10.93;;;6.80;97.60;;;;;;9677332;30;20449;-63
2022/12/03 16:40:53;;;;;;;34.67;12.88;;;6.70;97.40;;;;;;9679108;30;20034;-61
2022/12/03 16:51:13;;;;;;;28.83;12.23;;;6.60;97.20;;;;;;9679003;30;20077;-61
2022/12/03 16:56:14;;;;;;;29.70;12.43;;;6.60;97.20;;;;;;9679307;30;20488;-61
2022/12/03 17:01:15;;;;;;;26.70;10.85;;;6.60;97.20;;;;;;9680479;30;20038;-61
2022/12/03 17:06:16;;;;;;;29.13;12.50;;;6.60;97.20;;;;;;9682597;30;20504;-61
2022/12/03 17:11:17;;;;;;;32.35;12.10;;;6.60;97.20;;;;;;9672525;30;20058;-61
2022/12/03 17:16:17;;;;;;;29.30;12.10;;;6.60;97.20;;;;;;9665330;30;20062;-61
2022/12/03 17:21:18;;;;;;;33.10;12.18;;;6.60;97.20;;;;;;9653046;30;20125;-61
2022/12/03 17:26:19;;;;;;;29.30;12.48;;;6.50;97.10;;;;;;9665429;30;20054;-61
2022/12/03 17:31:31;;;;;;;29.17;12.13;;;6.60;97.10;;;;;;9663262;30;20409;-61
2022/12/03 17:36:31;;;;;;;27.90;10.77;;;6.50;97.00;;;;;;9668272;30;20034;-62
2022/12/03 17:41:32;;;;;;;29.73;12.15;;;6.70;97.00;;;;;;9662600;30;20038;-61
2022/12/03 17:46:33;;;;;;;30.83;12.30;;;6.50;97.00;;;;;;9664114;30;20038;-65
2022/12/03 17:51:33;;;;;;;25.85;10.63;;;6.50;97.00;;;;;;9668890;30;20519;-61
2022/12/03 17:56:34;;;;;;;24.50;10.60;;;7.30;97.70;;;;;;9667784;30;20607;-64
2022/12/03 18:01:35;;;;;;;25.27;10.73;;;7.40;97.20;;;;;;9664296;30;20043;-64
2022/12/03 18:06:51;;;;;;;23.02;9.57;;;7.30;97.30;;;;;;9635848;30;20058;-63
2022/12/03 18:11:52;;;;;;;24.83;10.77;;;7.10;97.30;;;;;;9662643;30;20536;-63
2022/12/03 18:16:52;;;;;;;25.92;10.40;;;7.00;97.40;;;;;;9660748;30;20027;-64
2022/12/03 18:21:53;;;;;;;25.15;9.88;;;6.90;97.40;;;;;;9668129;30;20493;-63
2022/12/03 18:26:54;;;;;;;25.58;10.20;;;6.80;97.40;;;;;;9665574;30;20389;-63
2022/12/03 18:31:55;;;;;;;30.85;11.25;;;6.80;97.50;;;;;;9660971;30;20057;-62
2022/12/03 18:36:55;;;;;;;27.55;11.15;;;8.20;98.10;;;;;;9648983;30;20030;-63
2022/12/03 18:41:56;;;;;;;27.63;11.07;;;8.10;97.80;;;;;;9662879;30;20342;-63
2022/12/03 18:46:58;;;;;;;24.67;10.40;;;6.70;97.50;;;;;;9665254;30;20472;-62
2022/12/03 18:51:59;;;;;;;28.63;11.07;;;6.60;97.50;;;;;;9663845;30;20504;-62
2022/12/03 18:56:59;;;;;;;27.02;10.55;;;6.60;97.50;;;;;;9668589;30;20038;-63
2022/12/03 19:02:00;;;;;;;24.08;10.32;;;6.60;97.50;;;;;;9673680;30;20038;-62
2022/12/03 19:07:02;;;;;;;25.60;10.88;;;6.70;97.50;;;;;;9673124;30;20042;-63
2022/12/03 19:12:03;;;;;;;25.83;9.88;;;6.60;97.50;;;;;;9670742;30;20050;-62
2022/12/03 19:17:04;;;;;;;24.10;10.85;;;6.50;97.50;;;;;;9676724;30;20409;-64
2022/12/03 19:22:05;;;;;;;22.42;9.57;;;6.50;97.50;;;;;;9674138;30;20039;-62
2022/12/03 19:27:06;;;;;;;24.67;10.73;;;6.50;97.50;;;;;;9676864;30;20536;-62
2022/12/03 19:32:06;;;;;;;25.27;9.85;;;6.50;97.50;;;;;;9672670;30;20504;-62
2022/12/03 19:37:07;;;;;;;27.00;10.15;;;7.10;97.60;;;;;;9672286;30;20342;-62
2022/12/03 19:42:08;;;;;;;27.77;10.02;;;6.70;97.50;;;;;;9673275;30;20034;-62
2022/12/03 19:47:08;;;;;;;23.73;9.90;;;6.40;97.40;;;;;;9676092;30;20092;-67
2022/12/03 19:52:09;;;;;;;22.20;9.32;;;6.50;97.80;;;;;;9678054;30;20049;-62
2022/12/03 19:57:10;;;;;;;22.65;9.13;;;6.90;97.70;;;;;;9678361;30;20034;-62
2022/12/03 20:02:11;;;;;;;22.25;9.35;;;6.60;97.60;;;;;;9670470;30;20465;-62
2022/12/03 20:07:12;;;;;;;22.85;9.20;;;6.60;97.60;;;;;;9676760;30;20062;-62
2022/12/03 20:12:12;;;;;;;22.85;9.32;;;6.50;97.60;;;;;;9671455;30;20157;-62
2022/12/03 20:17:13;;;;;;;31.58;9.65;;;6.50;97.60;;;;;;9678357;30;20027;-62
2022/12/03 20:22:21;;;;;;;27.30;10.25;;;6.50;97.60;;;;;;9679713;30;20121;-62
2022/12/03 20:27:21;;;;;;;22.30;9.38;;;7.40;97.80;;;;;;9662792;30;20030;-62
2022/12/03 20:32:22;;;;;;;25.80;9.23;;;6.70;97.60;;;;;;9678662;30;20042;-62
2022/12/03 20:37:23;;;;;;;21.52;9.10;;;7.30;97.70;;;;;;9689364;25;20499;-62
2022/12/03 20:42:24;;;;;;;23.48;10.10;;;6.40;97.50;;;;;;9867159;25;20119;-62
2022/12/03 20:47:24;;;;;;;21.40;9.10;;;6.40;97.50;;;;;;9675944;30;20064;-62
2022/12/03 20:52:25;;;;;;;20.67;9.75;;;6.40;97.50;;;;;;9678006;30;20056;-62
2022/12/03 20:57:26;;;;;;;24.20;9.90;;;6.40;97.60;;;;;;9676247;30;20057;-63
2022/12/03 21:02:27;;;;;;;26.08;9.80;;;6.40;97.40;;;;;;9677804;30;20102;-63
2022/12/03 21:07:27;;;;;;;26.60;10.15;;;6.50;97.50;;;;;;9674466;30;20042;-64
2022/12/03 21:12:28;;;;;;;26.83;10.68;;;6.50;97.50;;;;;;9674915;30;20057;-64
2022/12/03 21:17:29;;;;;;;27.00;10.45;;;6.60;97.50;;;;;;9676844;30;20042;-64
2022/12/03 21:22:29;;;;;;;31.92;11.05;;;6.50;97.50;;;;;;9668722;30;20114;-64
2022/12/03 21:27:30;;;;;;;29.10;10.00;;;6.50;97.50;;;;;;9666754;30;20034;-63
2022/12/03 21:32:31;;;;;;;24.58;9.82;;;6.50;97.70;;;;;;9669616;30;20120;-65
2022/12/03 21:37:31;;;;;;;26.20;10.82;;;6.40;97.40;;;;;;9666277;30;20045;-63
2022/12/03 21:42:32;;;;;;;27.35;10.65;;;6.40;97.40;;;;;;9672025;30;20066;-64
2022/12/03 21:47:33;;;;;;;23.65;10.57;;;6.60;97.40;;;;;;9675922;30;20031;-63
2022/12/03 21:52:34;;;;;;;25.48;10.57;;;6.40;97.30;;;;;;9675142;30;20053;-63
2022/12/03 21:57:35;;;;;;;28.95;10.98;;;6.30;97.30;;;;;;9665289;30;20035;-63
2022/12/03 22:02:38;;;;;;;28.08;11.45;;;6.30;97.30;;;;;;9667376;30;20448;-64
2022/12/03 22:07:39;;;;;;;29.88;11.00;;;6.30;97.20;;;;;;9674350;30;20050;-64
2022/12/03 22:12:40;;;;;;;27.48;10.45;;;6.80;97.30;;;;;;9674693;30;20574;-64
2022/12/03 22:17:41;;;;;;;26.45;10.38;;;6.30;97.20;;;;;;9674084;30;20096;-64
2022/12/03 22:22:42;;;;;;;31.08;10.73;;;6.70;97.30;;;;;;9674689;30;20022;-64
2022/12/03 22:27:43;;;;;;;30.23;11.65;;;6.60;97.20;;;;;;9674533;30;21233;-64
2022/12/03 22:32:43;;;;;;;26.48;11.00;;;6.20;97.10;;;;;;9673345;30;20108;-64
2022/12/03 22:37:44;;;;;;;30.98;11.73;;;6.20;97.10;;;;;;9673789;30;20407;-64
2022/12/03 22:42:45;;;;;;;31.27;11.43;;;6.20;97.10;;;;;;9674341;30;20050;-64
2022/12/03 22:47:46;;;;;;;24.90;10.25;;;6.20;97.00;;;;;;9672767;30;20038;-64
2022/12/03 22:52:47;;;;;;;29.25;11.50;;;6.20;97.00;;;;;;9674822;30;20069;-64
2022/12/03 22:57:48;;;;;;;30.23;10.50;;;7.00;97.20;;;;;;9671409;30;20031;-64
2022/12/03 23:02:50;;;;;;;29.25;11.35;;;6.20;97.10;;;;;;9659556;30;20042;-64
2022/12/03 23:07:51;;;;;;;28.00;11.02;;;6.20;97.00;;;;;;9659279;30;20031;-64
2022/12/03 23:12:52;;;;;;;27.45;10.95;;;7.40;97.20;;;;;;9660435;30;20097;-63
2022/12/03 23:17:53;;;;;;;29.35;11.20;;;6.30;97.00;;;;;;9665425;30;20042;-63
2022/12/03 23:22:54;;;;;;;31.13;10.95;;;6.30;97.00;;;;;;9680295;30;20138;-64
2022/12/03 23:27:55;;;;;;;29.60;11.68;;;6.20;96.90;;;;;;9683886;30;20049;-64
2022/12/03 23:32:56;;;;;;;29.08;10.05;;;6.30;97.00;;;;;;9682505;30;20038;-64
2022/12/03 23:37:57;;;;;;;30.75;12.13;;;6.20;96.90;;;;;;9683523;30;20504;-64
2022/12/03 23:42:57;;;;;;;24.80;9.73;;;6.20;96.90;;;;;;9682860;30;20058;-64
2022/12/03 23:47:58;;;;;;;28.60;11.15;;;6.10;96.80;;;;;;9683574;30;20432;-64
2022/12/03 23:52:59;;;;;;;27.67;10.27;;;6.10;96.80;;;;;;9682476;30;20066;-64
2022/12/03 23:58:00;;;;;;;31.55;11.40;;;6.10;96.80;;;;;;9681021;30;20122;-64
